Time;durP1;ratioP1;P1;durP2;ratioP2;P2;SDS_P1;SDS_P2;PMS_P1;PMS_P2;Temp;Humidity;BMP_temperature;BMP_pressure;BME280_temperature;BME280_humidity;BME280_pressure;Samples;Min_cycle;Max_cycle;Signal;HPM_P1;HPM_P2
2023/08/02 00:00:47;;;;;;;6.63;3.73;;;;;;;25.89;60.61;98188.16;5032315;28;20525;-86
2023/08/02 00:03:13;;;;;;;7.03;3.53;;;;;;;25.75;61.13;98194.50;5033529;28;20178;-86
2023/08/02 00:05:39;;;;;;;7.22;4.20;;;;;;;25.89;60.46;98182.78;5032346;28;20209;-86
2023/08/02 00:08:04;;;;;;;6.87;3.83;;;;;;;26.01;60.24;98191.94;5032470;28;20587;-86
2023/08/02 00:10:30;;;;;;;6.32;3.65;;;;;;;26.18;59.42;98187.03;5033699;28;20627;-86
2023/08/02 00:12:55;;;;;;;8.35;3.70;;;;;;;26.17;59.43;98183.56;5033397;28;20174;-86
2023/08/02 00:15:21;;;;;;;6.18;3.80;;;;;;;26.30;58.76;98189.97;5033325;28;20174;-86
2023/08/02 00:17:46;;;;;;;7.28;3.42;;;;;;;26.13;59.29;98184.97;5033480;28;20647;-86
2023/08/02 00:20:12;;;;;;;7.70;3.97;;;;;;;26.18;59.30;98190.56;5032379;28;20174;-86
2023/08/02 00:22:38;;;;;;;6.43;3.92;;;;;;;26.13;59.45;98184.97;5033235;28;20190;-86
2023/08/02 00:25:03;;;;;;;6.68;3.30;;;;;;;26.11;59.35;98187.00;5033398;28;20323;-86
2023/08/02 00:27:32;;;;;;;6.07;3.53;;;;;;;25.98;59.75;98188.81;5032961;28;20193;-86
2023/08/02 00:29:57;;;;;;;6.63;3.78;;;;;;;26.01;59.47;98181.19;5010566;28;20186;-86
2023/08/02 00:32:23;;;;;;;6.15;3.85;;;;;;;26.07;59.50;98195.69;5033438;28;20186;-86
2023/08/02 00:34:54;;;;;;;7.03;3.63;;;;;;;26.12;59.24;98187.84;5033062;28;20185;-86
2023/08/02 00:37:22;;;;;;;5.65;3.72;;;;;;;26.08;59.34;98182.03;5032247;28;20302;-86
2023/08/02 00:39:54;;;;;;;7.18;4.00;;;;;;;26.11;59.03;98181.63;5033058;28;20200;-86
2023/08/02 00:42:21;;;;;;;5.95;3.72;;;;;;;26.07;59.43;98196.47;5034577;28;20670;-86
2023/08/02 00:44:46;;;;;;;6.13;4.18;;;;;;;26.17;59.04;98191.63;5037200;28;20205;-86
2023/08/02 00:47:12;;;;;;;5.90;3.80;;;;;;;26.10;59.06;98193.41;5037124;28;20206;-86
2023/08/02 00:49:37;;;;;;;5.83;3.60;;;;;;;26.25;58.72;98187.91;5036958;28;20604;-86
2023/08/02 00:52:04;;;;;;;7.38;3.92;;;;;;;26.29;58.73;98185.63;5037056;28;20235;-86
2023/08/02 00:54:29;;;;;;;8.82;4.00;;;;;;;26.28;58.48;98189.38;5037186;28;20178;-87
2023/08/02 00:56:55;;;;;;;7.70;4.22;;;;;;;26.28;58.21;98186.69;5037233;28;20236;-87
2023/08/02 00:59:21;;;;;;;5.90;3.63;;;;;;;26.32;58.47;98191.44;5036889;28;20682;-86
2023/08/02 01:01:47;;;;;;;7.38;4.03;;;;;;;26.35;58.05;98188.34;5035670;28;20228;-86
2023/08/02 01:04:13;;;;;;;8.02;4.65;;;;;;;26.39;58.04;98186.88;5036861;28;20214;-86
2023/08/02 01:06:48;;;;;;;6.85;4.28;;;;;;;26.44;57.60;98191.69;5036741;28;20216;-86
2023/08/02 01:09:43;;;;;;;8.23;4.17;;;;;;;26.43;57.62;98184.63;5036836;28;20166;-86
2023/08/02 01:12:12;;;;;;;7.63;4.63;;;;;;;26.40;57.40;98195.78;5009938;28;20205;-86
2023/08/02 01:14:43;;;;;;;5.97;3.70;;;;;;;26.47;57.10;98191.25;5036713;28;20182;-86
2023/08/02 01:17:12;;;;;;;6.82;4.50;;;;;;;26.51;57.16;98196.03;5036796;28;20167;-86
2023/08/02 01:19:38;;;;;;;13.10;4.57;;;;;;;26.58;56.88;98193.34;5036920;28;20706;-87
2023/08/02 01:22:03;;;;;;;5.83;4.00;;;;;;;26.55;56.75;98194.56;5035529;28;20202;-87
2023/08/02 01:24:34;;;;;;;9.40;4.00;;;;;;;26.67;56.06;98192.13;5036406;28;20257;-86
2023/08/02 01:27:09;;;;;;;6.40;4.15;;;;;;;26.79;56.04;98190.50;5036414;28;20257;-86
2023/08/02 01:29:41;;;;;;;7.45;4.53;;;;;;;26.84;55.59;98196.91;5036875;28;20631;-86
2023/08/02 01:32:09;;;;;;;6.43;4.10;;;;;;;26.86;55.59;98191.31;5035668;28;20174;-86
2023/08/02 01:34:35;;;;;;;6.65;4.07;;;;;;;26.94;55.45;98196.50;5035217;28;20233;-86
2023/08/02 01:37:01;;;;;;;7.90;4.30;;;;;;;26.97;55.20;98197.94;5018920;28;20182;-86
2023/08/02 01:39:26;;;;;;;8.38;4.88;;;;;;;26.95;55.21;98190.09;5035481;28;20182;-86
2023/08/02 01:41:51;;;;;;;6.60;4.13;;;;;;;27.01;54.64;98202.72;5036554;28;20339;-86
2023/08/02 01:44:17;;;;;;;8.32;4.18;;;;;;;27.08;54.51;98198.16;5036219;28;20221;-86
2023/08/02 01:46:42;;;;;;;6.90;4.45;;;;;;;27.13;54.38;98206.44;5035084;28;20178;-86
2023/08/02 01:49:08;;;;;;;6.35;4.07;;;;;;;27.18;53.92;98206.63;5034929;28;20583;-86
2023/08/02 01:51:33;;;;;;;7.63;4.57;;;;;;;27.20;54.19;98209.94;5034934;28;20178;-86
2023/08/02 01:53:59;;;;;;;6.95;4.03;;;;;;;27.24;54.13;98218.44;5035114;28;20177;-86
2023/08/02 01:56:24;;;;;;;7.82;4.25;;;;;;;27.25;54.29;98212.81;5035830;28;20348;-86
2023/08/02 01:58:49;;;;;;;8.10;4.22;;;;;;;27.21;54.14;98216.16;5035813;28;20185;-86
2023/08/02 02:01:15;;;;;;;5.77;3.60;;;;;;;27.15;54.55;98217.81;5035987;28;20202;-86
2023/08/02 02:03:40;;;;;;;6.18;4.28;;;;;;;27.25;54.20;98217.41;5034795;28;20193;-86
2023/08/02 02:06:05;;;;;;;9.00;4.45;;;;;;;27.19;54.19;98220.91;5034955;28;20178;-86
2023/08/02 02:08:31;;;;;;;6.32;4.32;;;;;;;27.19;54.17;98220.91;5034709;28;20218;-86
2023/08/02 02:10:56;;;;;;;8.55;4.07;;;;;;;27.20;54.27;98220.69;5034643;28;20186;-86
2023/08/02 02:13:24;;;;;;;8.13;3.90;;;;;;;27.19;54.17;98224.44;5034565;28;20182;-86
2023/08/02 02:15:49;;;;;;;7.38;4.25;;;;;;;27.16;53.83;98230.22;5034450;28;20179;-86
2023/08/02 02:18:15;;;;;;;9.80;4.28;;;;;;;27.16;54.17;98224.84;5035395;28;20596;-86
2023/08/02 02:20:40;;;;;;;8.00;4.22;;;;;;;27.14;54.24;98229.63;5034645;28;20186;-86
2023/08/02 02:23:06;;;;;;;7.25;4.07;;;;;;;27.10;54.11;98228.38;5035372;28;20236;-86
2023/08/02 02:25:31;;;;;;;7.05;4.43;;;;;;;27.06;54.47;98237.91;5035177;28;20190;-86
2023/08/02 02:27:57;;;;;;;7.28;4.13;;;;;;;27.02;54.91;98238.53;5035228;28;20616;-86
2023/08/02 02:30:22;;;;;;;7.15;4.07;;;;;;;26.88;54.73;98235.00;5034307;28;20186;-86
2023/08/02 02:32:48;;;;;;;8.52;4.10;;;;;;;26.89;54.80;98243.91;5035138;28;20170;-86
2023/08/02 02:35:14;;;;;;;5.80;4.00;;;;;;;26.83;55.17;98240.16;5033923;28;20178;-86
2023/08/02 02:37:39;;;;;;;6.75;4.15;;;;;;;26.79;55.01;98249.66;5035012;28;20171;-86
2023/08/02 02:40:06;;;;;;;7.75;4.25;;;;;;;26.75;55.04;98253.78;5034084;28;20546;-86
2023/08/02 02:42:31;;;;;;;7.25;4.38;;;;;;;26.69;55.25;98259.94;5033884;28;20198;-86
2023/08/02 02:44:56;;;;;;;9.30;5.20;;;;;;;26.56;55.60;98254.53;5034935;28;20253;-86
2023/08/02 02:47:22;;;;;;;7.17;4.37;;;;;;;26.47;56.18;98256.59;5033774;28;20196;-86
2023/08/02 02:49:47;;;;;;;6.40;4.40;;;;;;;26.45;56.32;98258.66;5034846;28;20635;-86
2023/08/02 02:52:13;;;;;;;8.03;3.97;;;;;;;26.45;56.28;98257.81;5034790;28;20632;-86
2023/08/02 02:54:38;;;;;;;6.43;4.47;;;;;;;26.36;56.45;98264.41;5034817;28;20261;-86
2023/08/02 02:57:04;;;;;;;6.85;4.78;;;;;;;26.30;56.40;98267.91;5033649;28;20264;-86
2023/08/02 02:59:29;;;;;;;6.37;4.43;;;;;;;26.28;56.83;98267.28;5034578;28;20549;-86
2023/08/02 03:01:55;;;;;;;8.23;4.53;;;;;;;26.21;57.22;98256.50;5034531;28;20665;-86
2023/08/02 03:04:20;;;;;;;6.27;4.03;;;;;;;26.12;57.39;98258.53;5034610;28;20734;-86
2023/08/02 03:06:46;;;;;;;6.13;3.87;;;;;;;26.07;57.91;98255.56;5034467;28;20193;-86
2023/08/02 03:09:11;;;;;;;7.47;4.45;;;;;;;26.03;58.41;98259.69;5034476;28;20181;-86
2023/08/02 03:11:37;;;;;;;6.50;4.78;;;;;;;26.01;57.86;98253.69;5034300;28;20217;-86
2023/08/02 03:14:04;;;;;;;7.50;4.00;;;;;;;25.96;58.51;98258.84;5034625;28;20188;-86
2023/08/02 03:16:30;;;;;;;6.30;4.07;;;;;;;25.96;58.64;98258.84;5034579;28;20208;-86
2023/08/02 03:18:55;;;;;;;6.00;4.17;;;;;;;25.99;58.30;98258.47;5034476;28;20186;-86
2023/08/02 03:21:21;;;;;;;5.77;4.07;;;;;;;26.07;58.22;98262.81;5033219;28;20563;-86
2023/08/02 03:23:46;;;;;;;6.00;4.10;;;;;;;26.05;57.68;98268.38;5034177;28;20185;-85
2023/08/02 03:26:12;;;;;;;6.80;4.57;;;;;;;26.04;57.82;98269.44;5034297;28;20259;-85
2023/08/02 03:28:37;;;;;;;5.97;3.90;;;;;;;25.99;57.83;98269.19;5033988;28;20213;-86
2023/08/02 03:31:03;;;;;;;8.37;4.57;;;;;;;25.98;57.80;98278.28;5034407;28;20257;-85
2023/08/02 03:33:28;;;;;;;6.67;4.40;;;;;;;25.95;57.86;98267.09;5034016;28;20174;-86
2023/08/02 03:35:53;;;;;;;10.27;4.53;;;;;;;25.95;58.10;98261.72;5034249;28;20619;-85
2023/08/02 03:38:19;;;;;;;9.67;4.90;;;;;;;25.93;58.63;98264.63;5034063;28;20174;-85
2023/08/02 03:40:44;;;;;;;6.70;4.53;;;;;;;25.98;58.33;98269.38;5032742;28;20186;-86
2023/08/02 03:43:09;;;;;;;6.40;4.80;;;;;;;25.93;58.73;98264.63;5033836;28;20612;-85
2023/08/02 03:45:35;;;;;;;8.77;5.20;;;;;;;25.94;58.80;98258.19;5033818;28;20170;-85
2023/08/02 03:48:00;;;;;;;6.50;4.23;;;;;;;26.00;58.33;98267.31;5032834;28;20178;-86
2023/08/02 03:50:27;;;;;;;6.07;4.17;;;;;;;26.01;58.45;98268.97;5033727;28;20186;-86
2023/08/02 03:52:53;;;;;;;9.05;4.78;;;;;;;26.03;58.51;98267.75;5033691;28;20253;-85
2023/08/02 03:55:18;;;;;;;12.50;6.00;;;;;;;26.08;58.27;98270.66;5033456;28;20256;-86
2023/08/02 03:57:43;;;;;;;9.23;5.23;;;;;;;26.09;58.12;98275.03;5032963;28;20616;-86
2023/08/02 04:00:09;;;;;;;8.57;5.43;;;;;;;26.07;58.52;98270.88;5032630;28;20575;-85
2023/08/02 04:02:35;;;;;;;10.50;6.13;;;;;;;26.03;58.43;98270.44;5032307;28;20576;-86
2023/08/02 04:05:01;;;;;;;10.47;6.03;;;;;;;26.05;58.96;98276.44;5033374;28;20198;-85
2023/08/02 04:07:26;;;;;;;11.63;7.20;;;;;;;26.11;58.58;98282.88;5033999;28;20237;-86
2023/08/02 04:09:51;;;;;;;10.57;6.33;;;;;;;26.12;58.40;98279.16;5033447;28;20179;-85
2023/08/02 04:12:17;;;;;;;11.73;6.23;;;;;;;26.07;58.90;98277.06;5033704;28;20170;-85
2023/08/02 04:14:44;;;;;;;9.40;6.03;;;;;;;26.07;59.05;98277.06;5033193;28;20178;-85
2023/08/02 04:17:09;;;;;;;11.00;6.93;;;;;;;26.10;58.95;98279.34;5030010;28;20190;-85
2023/08/02 04:19:34;;;;;;;10.50;5.35;;;;;;;26.16;58.87;98283.97;5033303;28;20209;-85
2023/08/02 04:22:00;;;;;;;8.70;5.30;;;;;;;26.19;58.80;98280.88;5015526;28;20202;-85
2023/08/02 04:24:25;;;;;;;10.50;5.90;;;;;;;26.22;58.53;98280.50;5027594;28;20190;-85
2023/08/02 04:26:51;;;;;;;10.63;6.13;;;;;;;26.23;58.86;98281.31;5013739;28;20190;-85
2023/08/02 04:29:16;;;;;;;10.33;5.50;;;;;;;26.29;58.71;98279.66;5012520;28;20565;-85
2023/08/02 04:31:42;;;;;;;9.30;5.85;;;;;;;26.33;58.64;98281.78;5000875;28;20617;-85
2023/08/02 04:34:07;;;;;;;9.97;5.47;;;;;;;26.41;58.69;98286.13;5013395;28;20179;-85
2023/08/02 04:36:32;;;;;;;8.63;5.87;;;;;;;26.45;58.84;98280.16;5013402;28;20175;-85
2023/08/02 04:39:02;;;;;;;7.10;5.17;;;;;;;26.53;58.75;98277.28;5013512;28;20179;-86
2023/08/02 04:41:27;;;;;;;11.17;5.10;;;;;;;26.60;58.72;98275.44;4996968;28;20195;-86
2023/08/02 04:43:52;;;;;;;9.00;5.87;;;;;;;26.66;58.87;98274.63;5013286;28;20175;-86
2023/08/02 04:46:18;;;;;;;10.70;5.30;;;;;;;26.72;58.23;98278.38;5030133;28;20194;-86
2023/08/02 04:48:43;;;;;;;9.02;5.47;;;;;;;26.80;57.75;98278.22;5032974;28;20175;-86
2023/08/02 04:51:10;;;;;;;9.57;5.43;;;;;;;26.86;57.77;98269.31;5032958;28;20636;-86
2023/08/02 04:53:36;;;;;;;13.30;5.43;;;;;;;26.97;57.61;98278.63;5015605;28;20301;-86
2023/08/02 04:56:01;;;;;;;10.57;5.93;;;;;;;27.04;57.67;98282.19;5015488;28;20218;-86
2023/08/02 04:58:27;;;;;;;16.33;6.15;;;;;;;27.15;57.31;98274.31;5032647;28;20272;-86
2023/08/02 05:00:52;;;;;;;11.73;5.82;;;;;;;27.32;57.05;98283.63;5015354;28;20648;-85
2023/08/02 05:03:18;;;;;;;10.13;6.53;;;;;;;27.45;57.10;98285.53;4995893;28;20187;-86
2023/08/02 05:05:43;;;;;;;9.57;5.87;;;;;;;27.49;56.69;98286.75;5022140;28;20190;-86
2023/08/02 05:08:09;;;;;;;8.32;5.68;;;;;;;27.44;57.14;98284.69;5013065;28;20179;-86
2023/08/02 05:10:37;;;;;;;12.80;6.15;;;;;;;27.56;57.10;98279.50;5013104;28;20194;-86
2023/08/02 05:13:05;;;;;;;7.97;5.57;;;;;;;27.72;57.07;98273.69;5022007;28;20183;-86
2023/08/02 05:15:35;;;;;;;9.23;5.78;;;;;;;27.95;56.63;98279.44;5015398;28;20197;-86
2023/08/02 05:18:01;;;;;;;13.82;5.32;;;;;;;28.11;56.57;98271.94;5032002;28;20246;-85
2023/08/02 05:20:31;;;;;;;10.13;6.30;;;;;;;28.43;55.87;98276.38;5032185;28;20286;-86
2023/08/02 05:22:56;;;;;;;9.32;5.72;;;;;;;28.93;53.68;98275.47;5031680;28;20198;-86
2023/08/02 05:25:21;;;;;;;9.18;6.50;;;;;;;29.29;52.18;98274.84;5031835;28;20190;-86
2023/08/02 05:27:47;;;;;;;9.07;6.05;;;;;;;29.56;51.18;98281.63;5014508;28;20253;-86
2023/08/02 05:30:12;;;;;;;10.45;6.60;;;;;;;29.81;50.54;98276.25;5017119;28;20346;-86
2023/08/02 05:32:38;;;;;;;9.25;6.38;;;;;;;29.99;50.14;98283.53;5018432;28;20174;-85
2023/08/02 05:35:04;;;;;;;8.35;5.95;;;;;;;29.82;49.78;98289.50;5036194;28;20265;-85
2023/08/02 05:37:29;;;;;;;8.35;5.90;;;;;;;29.79;50.09;98295.38;5018720;28;20206;-85
2023/08/02 05:39:55;;;;;;;13.30;8.23;;;;;;;29.91;49.79;98286.53;5036664;28;20266;-85
2023/08/02 05:42:20;;;;;;;14.10;8.60;;;;;;;30.01;49.63;98284.13;5018586;28;20652;-86
2023/08/02 05:44:46;;;;;;;13.50;7.13;;;;;;;30.19;49.55;98284.16;5036035;28;20182;-86
2023/08/02 05:47:12;;;;;;;9.57;5.93;;;;;;;30.10;48.57;98274.66;5018593;28;20734;-86
2023/08/02 05:49:37;;;;;;;8.18;5.93;;;;;;;30.21;47.92;98282.03;5035982;28;20182;-86
2023/08/02 05:52:03;;;;;;;7.68;5.30;;;;;;;30.24;47.59;98287.00;5035881;28;20185;-86
2023/08/02 05:54:28;;;;;;;7.22;5.35;;;;;;;30.25;46.28;98277.81;5035798;28;20547;-85
2023/08/02 05:56:53;;;;;;;7.20;5.35;;;;;;;30.29;46.00;98289.84;5036113;28;20177;-85
2023/08/02 05:59:19;;;;;;;7.97;5.55;;;;;;;30.23;46.38;98285.31;5018380;28;20604;-86
2023/08/02 06:01:44;;;;;;;8.68;5.72;;;;;;;30.12;46.97;98288.78;5035823;28;20194;-86
2023/08/02 06:04:10;;;;;;;8.43;5.40;;;;;;;30.17;47.29;98292.47;5018096;28;20738;-86
2023/08/02 06:06:35;;;;;;;8.82;5.50;;;;;;;30.19;47.95;98289.56;5035934;28;20232;-85
2023/08/02 06:09:00;;;;;;;7.50;5.22;;;;;;;30.17;47.83;98287.06;5035632;28;20196;-86
2023/08/02 06:11:26;;;;;;;8.57;5.78;;;;;;;30.30;47.65;98291.47;5035577;28;20178;-86
2023/08/02 06:13:51;;;;;;;8.77;5.72;;;;;;;30.46;47.07;98296.31;5017815;28;20679;-86
2023/08/02 06:16:17;;;;;;;7.75;5.57;;;;;;;30.54;46.53;98296.00;5018039;28;20558;-85
2023/08/02 06:18:42;;;;;;;8.77;5.93;;;;;;;30.34;47.34;98292.69;5035695;28;20175;-86
2023/08/02 06:21:07;;;;;;;12.55;6.68;;;;;;;30.41;47.47;98297.00;5017901;28;20268;-86
2023/08/02 06:23:33;;;;;;;7.60;5.65;;;;;;;30.63;47.30;98297.34;5018194;28;20265;-86
2023/08/02 06:25:58;;;;;;;9.35;6.00;;;;;;;30.92;46.85;98285.69;5035539;28;20220;-86
2023/08/02 06:28:24;;;;;;;10.73;5.75;;;;;;;31.06;46.44;98286.31;5017868;28;20178;-87
2023/08/02 06:30:49;;;;;;;7.88;5.68;;;;;;;31.17;46.34;98290.94;5018047;28;20624;-87
2023/08/02 06:33:14;;;;;;;8.50;5.38;;;;;;;31.39;46.04;98288.50;5017697;28;20182;-87
2023/08/02 06:35:40;;;;;;;6.70;4.55;;;;;;;31.69;45.25;98294.66;5035114;28;20261;-86
2023/08/02 06:38:05;;;;;;;7.85;5.65;;;;;;;32.01;44.70;98285.16;5035190;28;20190;-87
2023/08/02 06:40:31;;;;;;;8.35;6.05;;;;;;;32.17;43.83;98297.16;5035029;28;20182;-86
2023/08/02 06:42:56;;;;;;;7.50;6.00;;;;;;;32.50;43.64;98296.44;5035192;28;20214;-87
2023/08/02 06:45:22;;;;;;;8.77;5.75;;;;;;;32.76;42.93;98302.16;5034862;28;20702;-86
2023/08/02 06:47:47;;;;;;;7.68;5.03;;;;;;;32.78;41.40;98307.38;5035151;28;20198;-86
2023/08/02 06:50:13;;;;;;;7.25;5.30;;;;;;;32.88;41.33;98304.84;5017382;28;20189;-87
2023/08/02 06:52:38;;;;;;;6.68;5.32;;;;;;;33.04;40.86;98306.81;5017338;28;20232;-87
2023/08/02 06:55:04;;;;;;;8.05;5.38;;;;;;;33.30;40.50;98313.50;5035105;28;20213;-86
2023/08/02 06:57:31;;;;;;;8.10;5.63;;;;;;;33.41;40.21;98310.69;5034399;28;20178;-87
2023/08/02 06:59:56;;;;;;;7.53;5.47;;;;;;;33.68;40.28;98301.91;5017126;28;20332;-86
2023/08/02 07:02:22;;;;;;;8.07;5.53;;;;;;;33.79;39.50;98298.28;5017365;28;20727;-87
2023/08/02 07:04:47;;;;;;;10.18;5.90;;;;;;;33.34;38.43;98292.91;5034556;28;20196;-87
2023/08/02 07:07:13;;;;;;;10.07;5.65;;;;;;;33.55;40.19;98285.91;5016982;28;20186;-87
2023/08/02 07:09:38;;;;;;;7.22;4.95;;;;;;;33.88;38.39;98281.25;5034260;28;20543;-87
2023/08/02 07:12:04;;;;;;;7.30;5.03;;;;;;;34.20;38.98;98283.38;5034350;28;20246;-87
2023/08/02 07:14:29;;;;;;;7.80;5.40;;;;;;;34.45;38.58;98279.06;5034843;28;20178;-87
2023/08/02 07:16:55;;;;;;;6.78;5.00;;;;;;;34.80;37.52;98294.19;5034555;28;20612;-87
2023/08/02 07:19:20;;;;;;;8.63;5.22;;;;;;;34.88;36.64;98289.09;5016849;28;20643;-86
2023/08/02 07:21:45;;;;;;;7.90;4.60;;;;;;;34.85;36.96;98286.91;5034380;28;20265;-87
2023/08/02 07:24:11;;;;;;;8.25;5.20;;;;;;;34.83;37.51;98280.88;5034709;28;20237;-87
2023/08/02 07:26:36;;;;;;;8.15;5.50;;;;;;;35.11;36.27;98282.53;5034370;28;20175;-88
2023/08/02 07:29:02;;;;;;;7.45;5.35;;;;;;;35.08;36.81;98275.72;5034099;28;20236;-87
2023/08/02 07:31:27;;;;;;;5.50;4.45;;;;;;;35.23;34.98;98271.47;5016700;28;20209;-87
2023/08/02 07:33:53;;;;;;;7.18;5.00;;;;;;;35.37;35.86;98275.41;5016586;28;20651;-87
2023/08/02 07:36:19;;;;;;;7.13;4.53;;;;;;;35.67;35.53;98279.19;5016453;28;20604;-87
2023/08/02 07:38:45;;;;;;;6.05;4.60;;;;;;;35.74;35.08;98274.34;5033922;28;20269;-87
2023/08/02 07:41:11;;;;;;;11.15;5.03;;;;;;;36.07;35.14;98277.81;5034291;28;20216;-87
2023/08/02 07:43:37;;;;;;;6.53;5.03;;;;;;;36.22;35.51;98269.72;5017191;28;20174;-87
2023/08/02 07:46:02;;;;;;;6.75;4.47;;;;;;;36.45;34.39;98263.81;5016216;28;20179;-87
2023/08/02 07:48:28;;;;;;;6.25;4.70;;;;;;;36.20;34.62;98266.44;5033772;28;20175;-87
2023/08/02 07:50:53;;;;;;;6.68;4.82;;;;;;;36.26;34.31;98274.38;5033577;28;20178;-87
2023/08/02 07:53:19;;;;;;;7.43;5.05;;;;;;;36.25;34.17;98270.00;5015823;28;20592;-87
2023/08/02 07:55:44;;;;;;;9.20;5.35;;;;;;;36.06;34.04;98279.72;5033528;28;20278;-86
2023/08/02 07:58:10;;;;;;;8.93;5.13;;;;;;;36.11;34.16;98276.22;5016178;28;20199;-87
2023/08/02 08:00:35;;;;;;;7.28;5.05;;;;;;;36.08;34.26;98274.03;5033671;28;20244;-87
2023/08/02 08:03:03;;;;;;;9.60;5.22;;;;;;;36.22;33.82;98269.72;5033948;28;20205;-87
2023/08/02 08:05:32;;;;;;;9.10;4.78;;;;;;;36.09;33.57;98262.00;5033670;28;20190;-86
2023/08/02 08:07:58;;;;;;;8.30;5.10;;;;;;;35.72;33.93;98265.59;5016174;28;20202;-87
2023/08/02 08:10:25;;;;;;;7.93;5.07;;;;;;;35.70;34.59;98259.59;5016335;28;20197;-87
2023/08/02 08:12:50;;;;;;;8.02;4.50;;;;;;;35.84;34.31;98265.41;5033837;28;20503;-87
2023/08/02 08:15:15;;;;;;;10.60;5.18;;;;;;;35.78;35.13;98274.63;5033901;28;20239;-87
2023/08/02 08:17:41;;;;;;;6.55;4.90;;;;;;;35.55;35.55;98275.03;5015897;28;20186;-86
2023/08/02 08:20:07;;;;;;;6.25;4.55;;;;;;;35.36;35.04;98288.19;5033566;28;20171;-87
2023/08/02 08:22:32;;;;;;;7.70;5.32;;;;;;;35.25;36.05;98275.56;5033463;28;20206;-87
2023/08/02 08:24:58;;;;;;;6.93;4.93;;;;;;;35.24;36.41;98289.47;5015728;28;20243;-87
2023/08/02 08:27:24;;;;;;;7.68;4.80;;;;;;;35.36;36.33;98296.38;5033542;28;20628;-86
2023/08/02 08:29:49;;;;;;;6.22;4.35;;;;;;;35.45;37.58;98292.09;5033207;28;20179;-87
2023/08/02 08:32:15;;;;;;;10.20;4.57;;;;;;;35.54;36.80;98290.56;5033161;28;20181;-86
2023/08/02 08:34:42;;;;;;;6.13;4.78;;;;;;;35.59;35.92;98282.41;5015709;28;20627;-87
2023/08/02 08:37:07;;;;;;;8.18;5.13;;;;;;;35.44;36.04;98285.00;5033113;28;20186;-87
2023/08/02 08:39:34;;;;;;;9.18;5.15;;;;;;;35.63;35.94;98285.44;5015556;28;20328;-87
2023/08/02 08:42:05;;;;;;;6.82;4.65;;;;;;;35.76;35.95;98285.00;5033267;28;20557;-86
2023/08/02 08:44:30;;;;;;;11.88;5.03;;;;;;;35.83;35.48;98285.56;5033474;28;20539;-87
2023/08/02 08:47:00;;;;;;;6.85;4.78;;;;;;;35.86;35.40;98276.03;5033052;28;20312;-86
2023/08/02 08:49:26;;;;;;;7.03;5.15;;;;;;;36.22;34.97;98291.53;5033614;28;20163;-87
2023/08/02 08:51:54;;;;;;;7.35;5.05;;;;;;;36.55;34.56;98288.47;5033264;28;20174;-87
2023/08/02 08:54:25;;;;;;;6.97;5.18;;;;;;;36.51;34.17;98284.59;5032755;28;20212;-87
2023/08/02 08:56:52;;;;;;;7.85;5.18;;;;;;;36.26;34.20;98285.31;5015475;28;20232;-87
2023/08/02 08:59:18;;;;;;;29.35;19.73;;;;;;;36.41;34.43;98286.44;5033614;28;20229;-86
2023/08/02 09:01:45;;;;;;;8.00;6.20;;;;;;;36.21;33.87;98277.09;5015722;28;20276;-87
2023/08/02 09:04:10;;;;;;;7.75;5.20;;;;;;;36.43;33.54;98278.81;5035576;28;20218;-87
2023/08/02 09:06:36;;;;;;;7.68;4.93;;;;;;;36.43;34.53;98267.91;5019283;28;20655;-87
2023/08/02 09:09:02;;;;;;;7.50;4.47;;;;;;;36.84;34.60;98262.31;5036923;28;20174;-87
2023/08/02 09:11:28;;;;;;;6.18;4.65;;;;;;;36.85;33.66;98257.63;5036949;28;20197;-87
2023/08/02 09:14:13;;;;;;;9.70;6.95;;;;;;;37.03;33.77;98259.09;5036512;28;20182;-87
2023/08/02 09:16:58;;;;;;;14.15;10.10;;;;;;;37.15;33.42;98251.44;5019142;28;20261;-87
2023/08/02 09:19:33;;;;;;;7.82;5.47;;;;;;;36.95;32.75;98247.56;5036798;28;20537;-87
2023/08/02 09:22:10;;;;;;;5.88;4.63;;;;;;;37.21;33.65;98240.25;5036916;28;20205;-87
2023/08/02 09:24:37;;;;;;;6.05;4.28;;;;;;;37.53;33.24;98245.41;5036753;28;20185;-88
2023/08/02 09:27:18;;;;;;;6.55;4.22;;;;;;;37.73;31.57;98244.56;5037252;28;20174;-88
2023/08/02 09:29:49;;;;;;;7.63;4.78;;;;;;;37.62;32.84;98241.03;5036985;28;20181;-86
2023/08/02 09:32:19;;;;;;;9.30;5.50;;;;;;;37.50;31.85;98243.25;5019137;28;20182;-88
2023/08/02 09:34:47;;;;;;;6.65;4.78;;;;;;;37.67;32.13;98245.66;5036090;28;20178;-88
2023/08/02 09:37:14;;;;;;;8.70;4.25;;;;;;;37.92;31.59;98240.97;5036198;28;20174;-87
2023/08/02 09:39:47;;;;;;;8.05;5.25;;;;;;;38.23;31.69;98246.34;5036185;28;20171;-87
2023/08/02 09:42:17;;;;;;;6.35;5.10;;;;;;;37.51;31.61;98244.88;5018944;28;20197;-88
2023/08/02 09:44:50;;;;;;;6.50;5.15;;;;;;;37.72;32.06;98241.00;5018459;28;20179;-87
2023/08/02 09:47:16;;;;;;;8.93;4.72;;;;;;;38.32;31.29;98241.94;5018893;28;20261;-87
2023/08/02 09:49:41;;;;;;;8.25;5.25;;;;;;;38.62;31.45;98239.88;5036295;28;20312;-87
2023/08/02 09:52:08;;;;;;;9.43;4.68;;;;;;;39.04;29.84;98225.66;5036241;28;20166;-87
2023/08/02 09:54:34;;;;;;;6.82;4.35;;;;;;;39.10;30.44;98229.97;5036011;28;20174;-88
2023/08/02 09:57:02;;;;;;;6.40;4.63;;;;;;;38.99;30.15;98222.97;5018385;28;20552;-87
2023/08/02 09:59:29;;;;;;;9.38;4.75;;;;;;;38.98;29.51;98213.09;5036064;28;20179;-88
2023/08/02 10:01:55;;;;;;;7.13;4.43;;;;;;;38.77;30.43;98225.28;5018405;28;20201;-87
2023/08/02 10:04:25;;;;;;;9.05;4.70;;;;;;;38.81;30.13;98220.91;5019058;28;20204;-87
2023/08/02 10:07:03;;;;;;;6.20;4.70;;;;;;;39.17;29.69;98211.28;5018434;28;20193;-87
2023/08/02 10:09:33;;;;;;;8.88;4.65;;;;;;;39.40;30.59;98211.66;5018351;28;20185;-88
2023/08/02 10:12:11;;;;;;;6.95;4.25;;;;;;;39.50;29.52;98206.06;5035664;28;20604;-88
2023/08/02 10:14:37;;;;;;;6.28;4.72;;;;;;;39.45;29.12;98204.19;4997749;28;20233;-87
2023/08/02 10:17:03;;;;;;;6.63;4.57;;;;;;;39.51;29.74;98200.28;5015785;28;20175;-87
2023/08/02 10:19:29;;;;;;;6.05;4.45;;;;;;;39.99;29.26;98205.84;5016202;28;20202;-87
2023/08/02 10:21:59;;;;;;;6.70;4.90;;;;;;;40.15;28.82;98202.63;5015509;28;20199;-88
2023/08/02 10:24:26;;;;;;;6.80;4.70;;;;;;;40.32;28.05;98202.94;5015375;28;20252;-88
2023/08/02 10:26:55;;;;;;;6.43;4.43;;;;;;;40.25;28.58;98194.28;5015708;28;20202;-88
2023/08/02 10:29:26;;;;;;;7.00;4.72;;;;;;;40.18;26.88;98202.03;5018090;28;20182;-88
2023/08/02 10:31:51;;;;;;;5.68;4.10;;;;;;;40.32;27.73;98194.72;5035230;28;20517;-87
2023/08/02 10:34:35;;;;;;;7.07;4.35;;;;;;;40.43;27.46;98192.63;5018015;28;20691;-88
2023/08/02 10:37:01;;;;;;;7.78;4.35;;;;;;;40.74;27.81;98182.03;5017670;28;20268;-88
2023/08/02 10:39:45;;;;;;;6.63;4.40;;;;;;;41.07;26.66;98179.03;5017903;28;20633;-87
2023/08/02 10:42:14;;;;;;;5.72;4.32;;;;;;;41.04;26.26;98176.88;5017789;28;20216;-88
2023/08/02 10:44:55;;;;;;;5.85;3.95;;;;;;;41.13;26.35;98174.25;5017506;28;20253;-88
2023/08/02 10:47:28;;;;;;;6.55;4.45;;;;;;;41.33;25.88;98176.69;5018195;28;20193;-87
2023/08/02 10:49:55;;;;;;;7.72;3.92;;;;;;;41.28;25.79;98175.91;5034984;28;20171;-88
2023/08/02 10:52:35;;;;;;;5.60;4.60;;;;;;;41.33;26.05;98178.63;5017335;28;20181;-87
2023/08/02 10:55:17;;;;;;;6.90;4.82;;;;;;;41.29;26.54;98167.38;5017226;28;20174;-88
2023/08/02 10:57:54;;;;;;;6.68;4.75;;;;;;;41.27;26.42;98164.13;5035219;28;20171;-88
2023/08/02 11:00:29;;;;;;;6.55;4.60;;;;;;;41.07;26.22;98153.47;5034877;28;20185;-88
2023/08/02 11:02:55;;;;;;;6.75;4.82;;;;;;;41.32;26.09;98153.06;5017103;28;20186;-87
2023/08/02 11:05:39;;;;;;;5.82;4.60;;;;;;;41.19;25.70;98148.31;5017022;28;20205;-87
2023/08/02 11:08:07;;;;;;;6.05;4.55;;;;;;;41.34;25.27;98148.06;5017033;28;20662;-87
2023/08/02 11:10:54;;;;;;;5.57;4.43;;;;;;;41.21;25.90;98142.50;5017310;28;20178;-88
2023/08/02 11:13:21;;;;;;;7.40;5.15;;;;;;;41.21;26.89;98142.50;5016971;28;20170;-87
2023/08/02 11:15:46;;;;;;;6.90;5.05;;;;;;;40.38;27.05;98141.34;5016757;28;20213;-88
2023/08/02 11:18:12;;;;;;;6.18;4.28;;;;;;;40.84;26.42;98130.47;5034563;28;20206;-86
2023/08/02 11:20:38;;;;;;;6.40;4.45;;;;;;;41.11;25.30;98127.00;5016933;28;20262;-87
2023/08/02 11:23:24;;;;;;;5.70;4.20;;;;;;;41.06;26.03;98130.69;5034280;28;20194;-87
2023/08/02 11:25:51;;;;;;;6.45;4.43;;;;;;;40.99;25.92;98129.41;5016671;28;20197;-88
2023/08/02 11:28:16;;;;;;;5.60;3.90;;;;;;;40.95;26.97;98131.97;5033531;28;20183;-87
2023/08/02 11:30:43;;;;;;;6.45;4.40;;;;;;;40.91;26.71;98121.88;5016671;28;20180;-87